Stewart, Nevada
Current Conditions -  °F | °C
As of 2:15 AM on Tuesday 21 Oct 2014 (Local Time) from KCXP Reporting Station
Scattered Clouds Scattered Clouds  
Wind Chill: 44°   Ceiling: Unl
Heat Index: 46°   Visibility: 10mi
Dew Point: 25°   Wind: 5mph
Humidity: 43%   Direction: 300°WNW
Pressure: 30.06"   Gusts: NA
Location:  39.1386°N, 119.659°W
Report Text: KCXP 210915Z AUTO 30004KT 10SM SCT060 08/M04 A3006 RMK AO2
Loading
Personal Weather Stations






























Interactive Weather Map
Tropical Storm Tracking
New forecast layout! Learn more

10-Day Weather Forecast

Advertisements
Track Severe Weather on mobile